createdAt,value
2023-05-12T00:03:36.613Z,100326.91
2023-05-12T00:08:40.944Z,100321.09
2023-05-12T00:13:44.105Z,100324.44
2023-05-12T00:18:47.041Z,100328.22
2023-05-12T00:23:51.253Z,100332.03
2023-05-12T00:28:54.150Z,100325.16
2023-05-12T00:33:57.004Z,100327.13
2023-05-12T00:39:01.575Z,100331.53
2023-05-12T00:44:04.546Z,100325.06
2023-05-12T00:49:07.823Z,100332.28
2023-05-12T00:54:12.073Z,100320.09
2023-05-12T00:59:14.823Z,100329.38
2023-05-12T01:04:17.798Z,100330.97
2023-05-12T01:09:23.220Z,100333.53
2023-05-12T01:14:26.385Z,100333.56
2023-05-12T01:19:35.546Z,100333.34
2023-05-12T01:24:56.215Z,100331.91
2023-05-12T01:30:03.282Z,100350.97
2023-05-12T01:35:10.000Z,100351.94
2023-05-12T01:40:16.360Z,100346.91
2023-05-12T01:45:20.998Z,100339.00
2023-05-12T01:50:25.064Z,100339.97
2023-05-12T01:55:27.903Z,100330.22
2023-05-12T02:00:35.438Z,100340.31
2023-05-12T02:05:39.314Z,100338.75
2023-05-12T02:10:42.115Z,100346.09
2023-05-12T02:15:46.381Z,100342.56
2023-05-12T02:20:49.288Z,100345.38
2023-05-12T02:25:52.088Z,100345.59
2023-05-12T02:30:56.949Z,100338.50
2023-05-12T02:36:00.646Z,100348.63
2023-05-12T02:41:03.528Z,100338.75
2023-05-12T02:46:07.933Z,100345.09
2023-05-12T02:51:10.868Z,100340.06
2023-05-12T02:56:13.760Z,100341.91
2023-05-12T03:01:18.026Z,100332.25
2023-05-12T03:06:20.792Z,100345.56
2023-05-12T03:11:23.728Z,100344.84
2023-05-12T03:16:28.055Z,100344.97
2023-05-12T03:21:30.909Z,100348.75
2023-05-12T03:26:34.166Z,100348.84
2023-05-12T03:31:38.826Z,100351.66
2023-05-12T03:36:42.129Z,100354.47
2023-05-12T03:41:45.206Z,100355.56
2023-05-12T03:46:49.474Z,100352.03
2023-05-12T03:51:52.571Z,100353.13
2023-05-12T03:56:55.532Z,100346.03
2023-05-12T04:01:59.959Z,100348.59
2023-05-12T04:07:02.801Z,100342.63
2023-05-12T04:12:06.286Z,100350.69
2023-05-12T04:17:10.489Z,100336.16
2023-05-12T04:22:13.266Z,100344.59
2023-05-12T04:27:16.559Z,100346.41
2023-05-12T04:32:21.817Z,100350.94
2023-05-12T04:37:25.037Z,100356.31
2023-05-12T04:42:28.021Z,100367.75
2023-05-12T04:47:32.391Z,100372.16
2023-05-12T04:52:35.334Z,100367.88
2023-05-12T04:57:40.912Z,100360.69
2023-05-12T05:02:47.371Z,100371.06
2023-05-12T05:07:50.844Z,100373.13
2023-05-12T05:12:53.920Z,100368.38
2023-05-12T05:18:01.784Z,100382.56
2023-05-12T05:23:05.255Z,100388.88
2023-05-12T05:28:08.175Z,100400.38
2023-05-12T05:33:13.631Z,100400.25
2023-05-12T05:38:16.885Z,100390.22
2023-05-12T05:43:19.801Z,100390.97
2023-05-12T05:48:24.683Z,100394.28
2023-05-12T05:53:27.849Z,100388.66
2023-05-12T05:58:31.456Z,100402.59
2023-05-12T06:03:38.511Z,100403.31
2023-05-12T06:08:41.564Z,100403.81
2023-05-12T06:13:44.465Z,100404.94
2023-05-12T06:18:48.935Z,100406.16
2023-05-12T06:23:52.307Z,100420.69
2023-05-12T06:28:56.191Z,100422.00
2023-05-12T06:34:00.596Z,100431.56
2023-05-12T06:39:04.395Z,100430.59
2023-05-12T06:44:12.519Z,100418.84
2023-05-12T06:49:16.952Z,100422.25
2023-05-12T06:54:19.891Z,100416.03
2023-05-12T06:59:22.979Z,100413.22
2023-05-12T07:04:27.899Z,100417.28
2023-05-12T07:09:30.815Z,100430.69
2023-05-12T07:14:33.637Z,100433.34
2023-05-12T07:19:39.624Z,100436.03
2023-05-12T07:24:42.600Z,100430.41
2023-05-12T07:29:45.429Z,100417.72
2023-05-12T07:34:49.600Z,100414.28
2023-05-12T07:39:52.556Z,100416.75
2023-05-12T07:44:55.462Z,100420.63
2023-05-12T07:49:59.704Z,100414.19
2023-05-12T07:55:02.626Z,100428.69
2023-05-12T08:00:07.282Z,100424.94
2023-05-12T08:05:17.098Z,100424.59
2023-05-12T08:10:20.355Z,100424.34
2023-05-12T08:15:23.415Z,100424.13
2023-05-12T08:20:27.877Z,100424.84
2023-05-12T08:25:31.363Z,100427.78
2023-05-12T08:30:34.392Z,100433.38
2023-05-12T08:35:38.672Z,100430.22
2023-05-12T08:40:48.435Z,100422.88
2023-05-12T08:45:51.202Z,100428.38
2023-05-12T08:50:55.446Z,100425.81
2023-05-12T08:57:08.904Z,100426.19
2023-05-12T09:01:21.503Z,100426.41
2023-05-12T09:06:26.154Z,100421.91
2023-05-12T09:11:28.976Z,100420.94
2023-05-12T09:16:33.881Z,100422.03
2023-05-12T09:21:38.363Z,100414.59
2023-05-12T09:26:48.420Z,100412.75
2023-05-12T09:31:51.911Z,100419.97
2023-05-12T09:36:59.256Z,100423.38
2023-05-12T09:42:02.022Z,100420.81
2023-05-12T09:47:07.984Z,100425.34
2023-05-12T09:52:12.238Z,100418.59
2023-05-12T09:57:15.414Z,100414.06
2023-05-12T10:02:18.656Z,100424.47
2023-05-12T10:07:23.978Z,100411.88
2023-05-12T10:12:26.914Z,100414.56
2023-05-12T10:17:30.048Z,100426.16
2023-05-12T10:22:34.587Z,100411.63
2023-05-12T10:27:37.946Z,100428.72
2023-05-12T10:32:41.470Z,100415.75
2023-05-12T10:37:48.085Z,100408.56
2023-05-12T10:42:51.609Z,100408.41
2023-05-12T10:47:54.509Z,100407.81
2023-05-12T10:52:58.733Z,100418.28
2023-05-12T10:58:10.768Z,100406.50
2023-05-12T11:03:16.521Z,100408.06
2023-05-12T11:08:21.765Z,100408.53
2023-05-12T11:13:25.177Z,100407.78
2023-05-12T11:18:28.123Z,100415.38
2023-05-12T11:23:32.422Z,100399.94
2023-05-12T11:28:40.818Z,100406.06
2023-05-12T11:33:43.629Z,100408.38
2023-05-12T11:38:51.284Z,100402.22
2023-05-12T11:43:54.119Z,100408.91
2023-05-12T11:48:57.446Z,100409.41
2023-05-12T11:54:01.629Z,100389.91
2023-05-12T11:59:04.564Z,100415.09
2023-05-12T12:04:07.817Z,100410.84
2023-05-12T12:09:12.376Z,100407.22
2023-05-12T12:14:15.497Z,100402.91
2023-05-12T12:19:18.319Z,100418.06
2023-05-12T12:24:22.457Z,100422.38
2023-05-12T12:29:26.259Z,100420.81
2023-05-12T12:34:30.141Z,100422.38
2023-05-12T12:39:34.258Z,100420.81
2023-05-12T12:44:37.055Z,100419.69
2023-05-12T12:49:39.914Z,100428.75
2023-05-12T12:54:44.129Z,100442.63
2023-05-12T12:59:46.891Z,100435.53
2023-05-12T13:04:51.229Z,100425.84
2023-05-12T13:09:55.568Z,100436.53
2023-05-12T13:15:00.138Z,100431.91
2023-05-12T13:20:03.944Z,100445.88
2023-05-12T13:25:09.021Z,100434.06
2023-05-12T13:30:13.722Z,100435.06
2023-05-12T13:35:17.130Z,100431.13
2023-05-12T13:40:27.215Z,100427.47
2023-05-12T13:45:30.123Z,100426.41
2023-05-12T13:50:33.728Z,100430.81
2023-05-12T13:55:40.831Z,100422.88
2023-05-12T14:00:43.889Z,100418.84
2023-05-12T14:05:46.750Z,100417.75
2023-05-12T14:10:50.880Z,100423.13
2023-05-12T14:15:54.139Z,100420.91
2023-05-12T14:20:57.362Z,100416.66
2023-05-12T14:26:01.646Z,100420.88
2023-05-12T14:31:04.758Z,100411.75
2023-05-12T14:36:09.009Z,100414.06
2023-05-12T14:41:13.393Z,100417.50
2023-05-12T14:46:16.563Z,100419.16
2023-05-12T14:51:19.510Z,100424.22
2023-05-12T14:56:25.262Z,100429.59
2023-05-12T15:01:28.126Z,100426.81
2023-05-12T15:06:30.952Z,100422.13
2023-05-12T15:11:36.911Z,100414.28
2023-05-12T15:16:40.269Z,100398.34
2023-05-12T15:21:43.045Z,100396.03
2023-05-12T15:26:47.189Z,100398.63
2023-05-12T15:31:50.204Z,100400.91
2023-05-12T15:36:53.221Z,100403.78
2023-05-12T15:41:57.614Z,100402.09
2023-05-12T15:47:00.815Z,100393.44
2023-05-12T15:52:03.732Z,100396.53
2023-05-12T15:57:08.508Z,100391.72
2023-05-12T16:02:11.608Z,100401.63
2023-05-12T16:07:15.685Z,100397.78
2023-05-12T16:12:19.805Z,100398.94
2023-05-12T16:17:22.793Z,100391.38
2023-05-12T16:22:25.966Z,100390.88
2023-05-12T16:27:31.981Z,100392.13
2023-05-12T16:32:34.948Z,100387.47
2023-05-12T16:37:37.983Z,100388.03
2023-05-12T16:42:42.675Z,100381.47
2023-05-12T16:47:45.609Z,100383.06
2023-05-12T16:52:48.392Z,100379.47
2023-05-12T16:57:52.469Z,100384.44
2023-05-12T17:02:55.323Z,100392.69
2023-05-12T17:07:58.141Z,100398.25
2023-05-12T17:13:02.517Z,100396.69
2023-05-12T17:18:05.429Z,100404.38
2023-05-12T17:23:09.162Z,100416.88
2023-05-12T17:28:13.390Z,100422.38
2023-05-12T17:33:16.461Z,100427.59
2023-05-12T17:38:20.281Z,100437.38
2023-05-12T17:43:24.538Z,100464.34
2023-05-12T17:48:27.478Z,100465.03
2023-05-12T17:53:30.422Z,100471.00
2023-05-12T17:58:34.571Z,100466.13
2023-05-12T18:03:37.911Z,100458.84
2023-05-12T18:08:40.814Z,100454.69
2023-05-12T18:13:45.194Z,100448.59
2023-05-12T18:18:48.685Z,100452.44
2023-05-12T18:23:51.572Z,100460.78
2023-05-12T18:28:55.750Z,100467.25
2023-05-12T18:33:58.512Z,100481.63
2023-05-12T18:39:01.498Z,100480.88
2023-05-12T18:44:05.768Z,100482.84
2023-05-12T18:49:08.618Z,100493.50
2023-05-12T18:54:11.449Z,100506.13
2023-05-12T18:59:15.618Z,100521.84
2023-05-12T19:04:19.513Z,100527.50
2023-05-12T19:09:22.587Z,100537.41
2023-05-12T19:14:26.954Z,100545.91
2023-05-12T19:19:29.807Z,100557.56
2023-05-12T19:24:32.624Z,100552.16
2023-05-12T19:29:36.733Z,100553.00
2023-05-12T19:34:39.720Z,100555.72
2023-05-12T19:39:42.625Z,100561.09
2023-05-12T19:44:46.856Z,100565.28
2023-05-12T19:49:50.156Z,100575.34
2023-05-12T19:54:53.474Z,100577.34
2023-05-12T19:59:58.251Z,100572.06
2023-05-12T20:05:01.131Z,100570.34
2023-05-12T20:10:04.742Z,100574.16
2023-05-12T20:15:09.980Z,100573.19
2023-05-12T20:20:13.084Z,100565.22
2023-05-12T20:25:17.696Z,100570.47
2023-05-12T20:30:21.918Z,100574.03
2023-05-12T20:35:24.759Z,100583.81
2023-05-12T20:40:27.568Z,100580.88
2023-05-12T20:45:31.713Z,100582.59
2023-05-12T20:50:34.731Z,100577.66
2023-05-12T20:55:37.830Z,100579.81
2023-05-12T21:00:41.899Z,100587.63
2023-05-12T21:05:47.660Z,100586.53
2023-05-12T21:10:50.660Z,100594.50
2023-05-12T21:15:54.826Z,100587.50
2023-05-12T21:20:57.580Z,100594.03
2023-05-12T21:26:00.329Z,100610.31
2023-05-12T21:31:04.604Z,100615.28
2023-05-12T21:36:08.063Z,100615.38
2023-05-12T21:41:10.816Z,100619.19
2023-05-12T21:46:15.017Z,100627.28
2023-05-12T21:51:17.833Z,100628.13
2023-05-12T21:56:20.664Z,100620.97
2023-05-12T22:01:24.935Z,100618.75
2023-05-12T22:06:27.733Z,100626.84
2023-05-12T22:11:30.580Z,100627.91
2023-05-12T22:16:41.944Z,100629.91
2023-05-12T22:21:45.711Z,100629.91
2023-05-12T22:26:48.664Z,100638.25
2023-05-12T22:31:53.026Z,100640.94
2023-05-12T22:36:55.839Z,100629.44
2023-05-12T22:41:58.936Z,100634.81
2023-05-12T22:47:03.194Z,100636.63
2023-05-12T22:52:06.661Z,100641.19
2023-05-12T22:57:09.557Z,100641.31
2023-05-12T23:02:13.691Z,100637.88
2023-05-12T23:07:16.481Z,100638.03
2023-05-12T23:12:19.214Z,100642.56
2023-05-12T23:17:23.339Z,100647.94
2023-05-12T23:22:26.153Z,100647.09
2023-05-12T23:27:28.974Z,100652.63
2023-05-12T23:32:33.159Z,100650.03
2023-05-12T23:37:36.118Z,100656.28
2023-05-12T23:42:38.898Z,100653.59
2023-05-12T23:47:43.188Z,100649.28
2023-05-12T23:52:45.959Z,100640.50
2023-05-12T23:57:48.749Z,100636.81
